sensor_id;sensor_type;location;lat;lon;timestamp;pressure;altitude;pressure_sealevel;temperature;humidity
70370;BME280;57790;51.356;-2.906;2023-07-29T00:01:58;100660.94;;;19.39;100.00
70370;BME280;57790;51.356;-2.906;2023-07-29T00:04:59;100648.72;;;19.37;100.00
70370;BME280;57790;51.356;-2.906;2023-07-29T00:07:59;100638.41;;;19.33;100.00
70370;BME280;57790;51.356;-2.906;2023-07-29T00:10:59;100645.28;;;19.29;100.00
70370;BME280;57790;51.356;-2.906;2023-07-29T00:14:03;100640.38;;;19.26;100.00
70370;BME280;57790;51.356;-2.906;2023-07-29T00:17:04;100638.50;;;19.27;100.00
70370;BME280;57790;51.356;-2.906;2023-07-29T00:20:05;100646.78;;;19.25;100.00
70370;BME280;57790;51.356;-2.906;2023-07-29T00:23:06;100641.84;;;19.22;100.00
70370;BME280;57790;51.356;-2.906;2023-07-29T00:26:06;100641.41;;;19.25;100.00
70370;BME280;57790;51.356;-2.906;2023-07-29T00:29:06;100645.34;;;19.23;100.00
70370;BME280;57790;51.356;-2.906;2023-07-29T00:32:07;100638.91;;;19.24;100.00
70370;BME280;57790;51.356;-2.906;2023-07-29T00:35:08;100641.84;;;19.22;100.00
70370;BME280;57790;51.356;-2.906;2023-07-29T00:38:08;100645.34;;;19.23;100.00
70370;BME280;57790;51.356;-2.906;2023-07-29T00:41:09;100643.78;;;19.15;100.00
70370;BME280;57790;51.356;-2.906;2023-07-29T00:44:13;100637.00;;;19.13;100.00
70370;BME280;57790;51.356;-2.906;2023-07-29T00:47:15;100639.44;;;19.14;100.00
70370;BME280;57790;51.356;-2.906;2023-07-29T00:50:17;100631.38;;;19.14;100.00
70370;BME280;57790;51.356;-2.906;2023-07-29T00:53:17;100636.75;;;19.14;100.00
70370;BME280;57790;51.356;-2.906;2023-07-29T00:56:18;100625.84;;;19.09;100.00
70370;BME280;57790;51.356;-2.906;2023-07-29T00:59:18;100632.25;;;19.08;100.00
70370;BME280;57790;51.356;-2.906;2023-07-29T01:02:19;100630.38;;;19.09;100.00
70370;BME280;57790;51.356;-2.906;2023-07-29T01:05:19;100619.84;;;19.07;100.00
70370;BME280;57790;51.356;-2.906;2023-07-29T01:08:33;100628.59;;;19.02;100.00
70370;BME280;57790;51.356;-2.906;2023-07-29T01:18:29;100624.41;;;19.07;100.00
70370;BME280;57790;51.356;-2.906;2023-07-29T01:21:31;100628.22;;;18.99;100.00
70370;BME280;57790;51.356;-2.906;2023-07-29T01:24:31;100627.00;;;18.95;100.00
70370;BME280;57790;51.356;-2.906;2023-07-29T01:27:31;100630.13;;;18.92;100.00
70370;BME280;57790;51.356;-2.906;2023-07-29T01:30:39;100622.06;;;18.92;100.00
70370;BME280;57790;51.356;-2.906;2023-07-29T01:33:47;100625.44;;;18.87;100.00
70370;BME280;57790;51.356;-2.906;2023-07-29T01:36:50;100622.13;;;18.85;100.00
70370;BME280;57790;51.356;-2.906;2023-07-29T01:39:52;100615.94;;;18.85;100.00
70370;BME280;57790;51.356;-2.906;2023-07-29T01:42:55;100616.16;;;18.83;100.00
70370;BME280;57790;51.356;-2.906;2023-07-29T01:45:56;100622.19;;;18.79;100.00
70370;BME280;57790;51.356;-2.906;2023-07-29T01:48:57;100629.19;;;18.80;100.00
70370;BME280;57790;51.356;-2.906;2023-07-29T01:51:57;100625.69;;;18.79;100.00
70370;BME280;57790;51.356;-2.906;2023-07-29T01:54:58;100638.75;;;18.76;100.00
70370;BME280;57790;51.356;-2.906;2023-07-29T01:57:58;100641.19;;;18.77;100.00
70370;BME280;57790;51.356;-2.906;2023-07-29T02:00:58;100633.38;;;18.76;100.00
70370;BME280;57790;51.356;-2.906;2023-07-29T02:03:59;100631.34;;;18.71;100.00
70370;BME280;57790;51.356;-2.906;2023-07-29T02:06:59;100626.41;;;18.68;100.00
70370;BME280;57790;51.356;-2.906;2023-07-29T02:10:00;100621.28;;;18.66;100.00
70370;BME280;57790;51.356;-2.906;2023-07-29T02:13:00;100617.53;;;18.67;100.00
70370;BME280;57790;51.356;-2.906;2023-07-29T02:16:01;100621.47;;;18.65;100.00
70370;BME280;57790;51.356;-2.906;2023-07-29T02:19:01;100618.13;;;18.63;100.00
70370;BME280;57790;51.356;-2.906;2023-07-29T02:22:01;100620.81;;;18.63;100.00
70370;BME280;57790;51.356;-2.906;2023-07-29T02:25:02;100622.69;;;18.69;100.00
70370;BME280;57790;51.356;-2.906;2023-07-29T02:28:03;100613.59;;;18.70;100.00
70370;BME280;57790;51.356;-2.906;2023-07-29T02:31:24;100620.22;;;18.67;100.00
70370;BME280;57790;51.356;-2.906;2023-07-29T02:34:25;100610.31;;;18.61;100.00
70370;BME280;57790;51.356;-2.906;2023-07-29T02:37:25;100616.91;;;18.65;100.00
70370;BME280;57790;51.356;-2.906;2023-07-29T02:40:25;100615.25;;;18.64;100.00
70370;BME280;57790;51.356;-2.906;2023-07-29T02:43:27;100609.72;;;18.59;100.00
70370;BME280;57790;51.356;-2.906;2023-07-29T02:46:27;100609.31;;;18.56;100.00
70370;BME280;57790;51.356;-2.906;2023-07-29T02:49:27;100604.78;;;18.56;100.00
70370;BME280;57790;51.356;-2.906;2023-07-29T02:52:28;100609.13;;;18.51;100.00
70370;BME280;57790;51.356;-2.906;2023-07-29T02:55:28;100612.03;;;18.49;100.00
70370;BME280;57790;51.356;-2.906;2023-07-29T02:58:28;100609.56;;;18.48;100.00
70370;BME280;57790;51.356;-2.906;2023-07-29T03:01:29;100616.59;;;18.49;100.00
70370;BME280;57790;51.356;-2.906;2023-07-29T03:04:30;100604.22;;;18.48;100.00
70370;BME280;57790;51.356;-2.906;2023-07-29T03:07:30;100607.94;;;18.47;100.00
70370;BME280;57790;51.356;-2.906;2023-07-29T03:10:30;100604.22;;;18.48;100.00
70370;BME280;57790;51.356;-2.906;2023-07-29T03:13:31;100601.91;;;18.51;100.00
70370;BME280;57790;51.356;-2.906;2023-07-29T03:16:31;100601.75;;;18.46;100.00
70370;BME280;57790;51.356;-2.906;2023-07-29T03:19:32;100596.16;;;18.48;100.00
70370;BME280;57790;51.356;-2.906;2023-07-29T03:22:32;100598.03;;;18.47;100.00
70370;BME280;57790;51.356;-2.906;2023-07-29T03:25:33;100591.81;;;18.47;100.00
70370;BME280;57790;51.356;-2.906;2023-07-29T03:28:33;100592.28;;;18.43;100.00
70370;BME280;57790;51.356;-2.906;2023-07-29T03:31:33;100598.69;;;18.42;100.00
70370;BME280;57790;51.356;-2.906;2023-07-29T03:34:34;100599.13;;;18.39;100.00
70370;BME280;57790;51.356;-2.906;2023-07-29T03:37:34;100591.88;;;18.40;100.00
70370;BME280;57790;51.356;-2.906;2023-07-29T03:40:35;100610.47;;;18.41;100.00
70370;BME280;57790;51.356;-2.906;2023-07-29T03:43:35;100602.63;;;18.40;100.00
70370;BME280;57790;51.356;-2.906;2023-07-29T03:46:36;100600.56;;;18.35;100.00
70370;BME280;57790;51.356;-2.906;2023-07-29T03:49:36;100610.09;;;18.38;100.00
70370;BME280;57790;51.356;-2.906;2023-07-29T03:52:36;100604.28;;;18.34;100.00
70370;BME280;57790;51.356;-2.906;2023-07-29T03:55:37;100602.06;;;18.31;100.00
70370;BME280;57790;51.356;-2.906;2023-07-29T03:58:37;100610.50;;;18.35;100.00
70370;BME280;57790;51.356;-2.906;2023-07-29T04:01:38;100610.72;;;18.33;100.00
70370;BME280;57790;51.356;-2.906;2023-07-29T04:04:38;100609.28;;;18.31;100.00
70370;BME280;57790;51.356;-2.906;2023-07-29T04:07:40;100618.38;;;18.30;100.00
70370;BME280;57790;51.356;-2.906;2023-07-29T04:10:40;100620.69;;;18.26;100.00
70370;BME280;57790;51.356;-2.906;2023-07-29T04:13:41;100627.47;;;18.29;100.00
70370;BME280;57790;51.356;-2.906;2023-07-29T04:16:41;100629.56;;;18.27;100.00
70370;BME280;57790;51.356;-2.906;2023-07-29T04:19:42;100619.03;;;18.25;100.00
70370;BME280;57790;51.356;-2.906;2023-07-29T04:22:42;100605.19;;;18.28;100.00
70370;BME280;57790;51.356;-2.906;2023-07-29T04:25:43;100614.50;;;18.26;100.00
70370;BME280;57790;51.356;-2.906;2023-07-29T04:28:43;100604.38;;;18.21;100.00
70370;BME280;57790;51.356;-2.906;2023-07-29T04:31:43;100608.09;;;18.20;100.00
70370;BME280;57790;51.356;-2.906;2023-07-29T04:34:44;100602.34;;;18.17;100.00
70370;BME280;57790;51.356;-2.906;2023-07-29T04:37:44;100612.25;;;18.16;100.00
70370;BME280;57790;51.356;-2.906;2023-07-29T04:40:45;100606.28;;;18.14;100.00
70370;BME280;57790;51.356;-2.906;2023-07-29T04:43:45;100611.66;;;18.14;100.00
70370;BME280;57790;51.356;-2.906;2023-07-29T04:46:45;100617.47;;;18.11;100.00
70370;BME280;57790;51.356;-2.906;2023-07-29T04:49:46;100617.88;;;18.08;100.00
70370;BME280;57790;51.356;-2.906;2023-07-29T04:52:46;100618.91;;;18.07;100.00
70370;BME280;57790;51.356;-2.906;2023-07-29T04:55:47;100624.50;;;18.05;100.00
70370;BME280;57790;51.356;-2.906;2023-07-29T04:58:47;100629.25;;;18.03;100.00
70370;BME280;57790;51.356;-2.906;2023-07-29T05:01:48;100618.97;;;18.00;100.00
70370;BME280;57790;51.356;-2.906;2023-07-29T05:04:48;100612.38;;;17.96;100.00
70370;BME280;57790;51.356;-2.906;2023-07-29T05:07:48;100601.88;;;17.95;100.00
70370;BME280;57790;51.356;-2.906;2023-07-29T05:10:49;100621.47;;;17.95;100.00
70370;BME280;57790;51.356;-2.906;2023-07-29T05:13:50;100613.41;;;17.95;100.00
70370;BME280;57790;51.356;-2.906;2023-07-29T05:16:50;100614.25;;;17.96;100.00
70370;BME280;57790;51.356;-2.906;2023-07-29T05:19:51;100611.97;;;17.93;100.00
70370;BME280;57790;51.356;-2.906;2023-07-29T05:22:51;100612.59;;;17.95;100.00
70370;BME280;57790;51.356;-2.906;2023-07-29T05:25:52;100608.47;;;17.92;100.00
70370;BME280;57790;51.356;-2.906;2023-07-29T05:28:52;100610.31;;;17.92;100.00
70370;BME280;57790;51.356;-2.906;2023-07-29T05:31:52;100614.03;;;17.91;100.00
70370;BME280;57790;51.356;-2.906;2023-07-29T05:34:53;100621.69;;;17.87;100.00
70370;BME280;57790;51.356;-2.906;2023-07-29T05:37:53;100614.69;;;17.86;100.00
70370;BME280;57790;51.356;-2.906;2023-07-29T05:40:53;100620.22;;;17.91;100.00
70370;BME280;57790;51.356;-2.906;2023-07-29T05:43:54;100622.69;;;17.93;100.00
70370;BME280;57790;51.356;-2.906;2023-07-29T05:46:54;100618.16;;;17.93;100.00
70370;BME280;57790;51.356;-2.906;2023-07-29T05:49:55;100622.50;;;17.94;100.00
70370;BME280;57790;51.356;-2.906;2023-07-29T05:52:55;100621.88;;;17.92;100.00
70370;BME280;57790;51.356;-2.906;2023-07-29T05:55:55;100618.81;;;17.89;100.00
70370;BME280;57790;51.356;-2.906;2023-07-29T05:58:56;100622.53;;;17.88;100.00
70370;BME280;57790;51.356;-2.906;2023-07-29T06:01:56;100616.56;;;17.86;100.00
70370;BME280;57790;51.356;-2.906;2023-07-29T06:04:56;100621.91;;;17.86;100.00
70370;BME280;57790;51.356;-2.906;2023-07-29T06:07:57;100623.34;;;17.88;100.00
70370;BME280;57790;51.356;-2.906;2023-07-29T06:10:58;100634.06;;;17.88;100.00
70370;BME280;57790;51.356;-2.906;2023-07-29T06:13:58;100634.06;;;17.88;100.00
70370;BME280;57790;51.356;-2.906;2023-07-29T06:16:58;100637.56;;;17.89;100.00
70370;BME280;57790;51.356;-2.906;2023-07-29T06:19:59;100634.88;;;17.89;100.00
70370;BME280;57790;51.356;-2.906;2023-07-29T06:22:59;100637.56;;;17.89;100.00
70370;BME280;57790;51.356;-2.906;2023-07-29T06:26:00;100634.28;;;17.87;100.00
70370;BME280;57790;51.356;-2.906;2023-07-29T06:29:00;100639.88;;;17.85;100.00
70370;BME280;57790;51.356;-2.906;2023-07-29T06:32:01;100641.50;;;17.86;100.00
70370;BME280;57790;51.356;-2.906;2023-07-29T06:35:01;100648.94;;;17.84;100.00
70370;BME280;57790;51.356;-2.906;2023-07-29T06:38:01;100644.84;;;17.81;100.00
70370;BME280;57790;51.356;-2.906;2023-07-29T06:41:02;100643.19;;;17.80;100.00
70370;BME280;57790;51.356;-2.906;2023-07-29T06:44:03;100653.28;;;17.85;100.00
70370;BME280;57790;51.356;-2.906;2023-07-29T06:47:04;100642.53;;;17.85;100.00
70370;BME280;57790;51.356;-2.906;2023-07-29T06:50:05;100649.13;;;17.89;100.00
70370;BME280;57790;51.356;-2.906;2023-07-29T06:53:06;100652.41;;;17.91;100.00
70370;BME280;57790;51.356;-2.906;2023-07-29T06:56:06;100648.28;;;17.95;100.00
70370;BME280;57790;51.356;-2.906;2023-07-29T06:59:07;100654.03;;;17.99;100.00
70370;BME280;57790;51.356;-2.906;2023-07-29T07:02:07;100655.47;;;18.01;100.00
70370;BME280;57790;51.356;-2.906;2023-07-29T07:05:08;100660.19;;;18.06;100.00
70370;BME280;57790;51.356;-2.906;2023-07-29T07:08:08;100660.19;;;18.12;100.00
70370;BME280;57790;51.356;-2.906;2023-07-29T07:11:08;100659.75;;;18.16;100.00
70370;BME280;57790;51.356;-2.906;2023-07-29T07:14:09;100661.16;;;18.18;100.00
70370;BME280;57790;51.356;-2.906;2023-07-29T07:17:09;100656.00;;;18.23;100.00
70370;BME280;57790;51.356;-2.906;2023-07-29T07:20:10;100658.88;;;18.22;100.00
70370;BME280;57790;51.356;-2.906;2023-07-29T07:23:10;100663.22;;;18.23;100.00
70370;BME280;57790;51.356;-2.906;2023-07-29T07:26:13;100668.38;;;18.24;100.00
70370;BME280;57790;51.356;-2.906;2023-07-29T07:29:13;100670.03;;;18.25;100.00
70370;BME280;57790;51.356;-2.906;2023-07-29T07:32:14;100677.25;;;18.25;100.00
70370;BME280;57790;51.356;-2.906;2023-07-29T07:35:14;100672.09;;;18.23;100.00
70370;BME280;57790;51.356;-2.906;2023-07-29T07:38:15;100673.75;;;18.24;100.00
70370;BME280;57790;51.356;-2.906;2023-07-29T07:41:15;100663.00;;;18.24;100.00
70370;BME280;57790;51.356;-2.906;2023-07-29T07:44:15;100672.50;;;18.27;100.00
70370;BME280;57790;51.356;-2.906;2023-07-29T07:47:18;100668.78;;;18.28;100.00
70370;BME280;57790;51.356;-2.906;2023-07-29T07:50:18;100672.44;;;18.33;100.00
70370;BME280;57790;51.356;-2.906;2023-07-29T07:53:18;100676.16;;;18.39;100.00
70370;BME280;57790;51.356;-2.906;2023-07-29T07:56:20;100678.63;;;18.40;100.00
70370;BME280;57790;51.356;-2.906;2023-07-29T07:59:20;100674.66;;;18.43;100.00
70370;BME280;57790;51.356;-2.906;2023-07-29T08:02:20;100674.22;;;18.46;100.00
70370;BME280;57790;51.356;-2.906;2023-07-29T08:05:21;100681.44;;;18.52;100.00
70370;BME280;57790;51.356;-2.906;2023-07-29T08:08:21;100687.63;;;18.53;100.00
70370;BME280;57790;51.356;-2.906;2023-07-29T08:11:22;100691.53;;;18.50;100.00
70370;BME280;57790;51.356;-2.906;2023-07-29T08:14:22;100689.91;;;18.49;100.00
70370;BME280;57790;51.356;-2.906;2023-07-29T08:17:22;100692.38;;;18.51;100.00
70370;BME280;57790;51.356;-2.906;2023-07-29T08:20:23;100696.50;;;18.53;100.00
70370;BME280;57790;51.356;-2.906;2023-07-29T08:23:26;100707.03;;;18.55;100.00
70370;BME280;57790;51.356;-2.906;2023-07-29T08:26:27;100697.94;;;18.56;100.00
70370;BME280;57790;51.356;-2.906;2023-07-29T08:29:27;100695.47;;;18.54;100.00
70370;BME280;57790;51.356;-2.906;2023-07-29T08:32:27;100690.91;;;18.55;100.00
70370;BME280;57790;51.356;-2.906;2023-07-29T08:35:28;100694.81;;;18.59;100.00
70370;BME280;57790;51.356;-2.906;2023-07-29T08:38:28;100697.28;;;18.60;100.00
70370;BME280;57790;51.356;-2.906;2023-07-29T08:41:32;100695.81;;;18.64;100.00
70370;BME280;57790;51.356;-2.906;2023-07-29T08:44:42;100704.53;;;18.66;100.00
70370;BME280;57790;51.356;-2.906;2023-07-29T08:47:43;100705.94;;;18.69;100.00
70370;BME280;57790;51.356;-2.906;2023-07-29T08:50:44;100702.00;;;18.71;100.00
70370;BME280;57790;51.356;-2.906;2023-07-29T08:53:45;100704.84;;;18.77;100.00
70370;BME280;57790;51.356;-2.906;2023-07-29T08:56:46;100706.50;;;18.78;100.00
70370;BME280;57790;51.356;-2.906;2023-07-29T08:59:46;100712.47;;;18.80;100.00
70370;BME280;57790;51.356;-2.906;2023-07-29T09:02:47;100706.25;;;18.86;100.00
70370;BME280;57790;51.356;-2.906;2023-07-29T09:05:47;100713.84;;;18.89;100.00
70370;BME280;57790;51.356;-2.906;2023-07-29T09:08:49;100716.53;;;18.89;100.00
70370;BME280;57790;51.356;-2.906;2023-07-29T09:11:51;100711.13;;;18.95;100.00
70370;BME280;57790;51.356;-2.906;2023-07-29T09:14:52;100704.50;;;18.98;100.00
70370;BME280;57790;51.356;-2.906;2023-07-29T09:17:53;100715.19;;;19.05;100.00
70370;BME280;57790;51.356;-2.906;2023-07-29T09:20:53;100707.94;;;19.05;100.00
70370;BME280;57790;51.356;-2.906;2023-07-29T09:23:54;100713.22;;;19.18;100.00
70370;BME280;57790;51.356;-2.906;2023-07-29T09:26:55;100720.84;;;19.21;100.00
70370;BME280;57790;51.356;-2.906;2023-07-29T09:29:56;100707.47;;;19.15;100.00
70370;BME280;57790;51.356;-2.906;2023-07-29T09:32:57;100712.63;;;19.16;100.00
70370;BME280;57790;51.356;-2.906;2023-07-29T09:35:57;100713.00;;;19.20;100.00
70370;BME280;57790;51.356;-2.906;2023-07-29T09:38:58;100721.44;;;19.23;100.00
70370;BME280;57790;51.356;-2.906;2023-07-29T09:41:59;100718.09;;;19.28;100.00
70370;BME280;57790;51.356;-2.906;2023-07-29T09:44:59;100718.41;;;19.38;100.00
70370;BME280;57790;51.356;-2.906;2023-07-29T09:48:00;100730.16;;;19.44;100.00
70370;BME280;57790;51.356;-2.906;2023-07-29T09:51:10;100733.59;;;19.51;100.00
70370;BME280;57790;51.356;-2.906;2023-07-29T09:54:11;100737.94;;;19.52;100.00
70370;BME280;57790;51.356;-2.906;2023-07-29T09:57:14;100727.16;;;19.52;100.00
70370;BME280;57790;51.356;-2.906;2023-07-29T10:00:16;100737.53;;;19.55;100.00
70370;BME280;57790;51.356;-2.906;2023-07-29T10:03:17;100731.50;;;19.59;100.00
70370;BME280;57790;51.356;-2.906;2023-07-29T10:06:19;100743.22;;;19.65;100.00
70370;BME280;57790;51.356;-2.906;2023-07-29T10:09:20;100744.81;;;19.73;100.00
70370;BME280;57790;51.356;-2.906;2023-07-29T10:12:21;100741.91;;;19.74;100.00
70370;BME280;57790;51.356;-2.906;2023-07-29T10:15:22;100744.34;;;19.76;100.00
70370;BME280;57790;51.356;-2.906;2023-07-29T10:18:23;100746.22;;;19.75;100.00
70370;BME280;57790;51.356;-2.906;2023-07-29T10:21:24;100747.66;;;19.78;100.00
70370;BME280;57790;51.356;-2.906;2023-07-29T10:24:28;100746.59;;;19.79;100.00
70370;BME280;57790;51.356;-2.906;2023-07-29T10:27:30;100747.19;;;19.81;100.00
70370;BME280;57790;51.356;-2.906;2023-07-29T10:30:35;100748.00;;;19.81;100.00
70370;BME280;57790;51.356;-2.906;2023-07-29T10:33:37;100744.31;;;19.82;100.00
70370;BME280;57790;51.356;-2.906;2023-07-29T10:36:38;100754.03;;;19.83;100.00
70370;BME280;57790;51.356;-2.906;2023-07-29T10:39:39;100744.91;;;19.84;100.00
70370;BME280;57790;51.356;-2.906;2023-07-29T10:43:00;100743.84;;;19.85;100.00
70370;BME280;57790;51.356;-2.906;2023-07-29T10:49:23;100757.22;;;19.92;100.00
70370;BME280;57790;51.356;-2.906;2023-07-29T10:52:30;100757.59;;;19.96;100.00
70370;BME280;57790;51.356;-2.906;2023-07-29T10:55:35;100770.78;;;20.04;100.00
70370;BME280;57790;51.356;-2.906;2023-07-29T10:58:42;100768.66;;;20.06;100.00
70370;BME280;57790;51.356;-2.906;2023-07-29T11:01:50;100778.38;;;20.07;100.00
70370;BME280;57790;51.356;-2.906;2023-07-29T11:04:51;100781.44;;;20.10;100.00
70370;BME280;57790;51.356;-2.906;2023-07-29T11:07:51;100774.81;;;20.13;100.00
70370;BME280;57790;51.356;-2.906;2023-07-29T11:11:00;100786.09;;;20.21;100.00
70370;BME280;57790;51.356;-2.906;2023-07-29T11:14:01;100783.63;;;20.20;100.00
70370;BME280;57790;51.356;-2.906;2023-07-29T11:17:02;100775.69;;;20.25;100.00
70370;BME280;57790;51.356;-2.906;2023-07-29T11:20:06;100783.34;;;20.28;100.00
70370;BME280;57790;51.356;-2.906;2023-07-29T11:23:07;100791.31;;;20.35;100.00
70370;BME280;57790;51.356;-2.906;2023-07-29T11:26:07;100770.97;;;20.39;100.00
70370;BME280;57790;51.356;-2.906;2023-07-29T11:29:09;100784.84;;;20.42;100.00
70370;BME280;57790;51.356;-2.906;2023-07-29T11:32:10;100788.50;;;20.48;100.00
70370;BME280;57790;51.356;-2.906;2023-07-29T11:35:13;100782.44;;;20.53;100.00
70370;BME280;57790;51.356;-2.906;2023-07-29T11:38:19;100789.84;;;20.57;100.00
70370;BME280;57790;51.356;-2.906;2023-07-29T11:41:20;100798.28;;;20.61;100.00
70370;BME280;57790;51.356;-2.906;2023-07-29T11:44:22;100794.91;;;20.65;100.00
70370;BME280;57790;51.356;-2.906;2023-07-29T11:47:22;100791.75;;;20.68;100.00
70370;BME280;57790;51.356;-2.906;2023-07-29T11:50:23;100798.13;;;20.74;100.00
70370;BME280;57790;51.356;-2.906;2023-07-29T11:53:27;100804.47;;;20.79;100.00
70370;BME280;57790;51.356;-2.906;2023-07-29T11:56:29;100810.00;;;20.85;100.00
70370;BME280;57790;51.356;-2.906;2023-07-29T11:59:30;100806.84;;;20.88;100.00
70370;BME280;57790;51.356;-2.906;2023-07-29T12:02:33;100808.38;;;20.95;100.00
70370;BME280;57790;51.356;-2.906;2023-07-29T12:05:36;100814.75;;;21.01;100.00
70370;BME280;57790;51.356;-2.906;2023-07-29T12:08:36;100817.81;;;21.04;100.00
70370;BME280;57790;51.356;-2.906;2023-07-29T12:11:37;100813.97;;;21.12;100.00
70370;BME280;57790;51.356;-2.906;2023-07-29T12:14:38;100806.25;;;21.16;100.00
70370;BME280;57790;51.356;-2.906;2023-07-29T12:17:41;100807.75;;;21.23;100.00
70370;BME280;57790;51.356;-2.906;2023-07-29T12:20:42;100806.06;;;21.29;100.00
70370;BME280;57790;51.356;-2.906;2023-07-29T12:23:42;100810.53;;;21.35;100.00
70370;BME280;57790;51.356;-2.906;2023-07-29T12:26:43;100810.06;;;21.38;100.00
70370;BME280;57790;51.356;-2.906;2023-07-29T12:29:44;100813.72;;;21.44;100.00
70370;BME280;57790;51.356;-2.906;2023-07-29T12:32:46;100813.25;;;21.47;100.00
70370;BME280;57790;51.356;-2.906;2023-07-29T12:35:47;100819.56;;;21.52;100.00
70370;BME280;57790;51.356;-2.906;2023-07-29T12:38:47;100821.38;;;21.58;100.00
70370;BME280;57790;51.356;-2.906;2023-07-29T12:41:49;100821.38;;;21.58;100.00
70370;BME280;57790;51.356;-2.906;2023-07-29T12:44:49;100824.19;;;21.63;100.00
70370;BME280;57790;51.356;-2.906;2023-07-29T12:47:50;100826.41;;;21.66;100.00
70370;BME280;57790;51.356;-2.906;2023-07-29T12:50:50;100836.97;;;21.68;100.00
70370;BME280;57790;51.356;-2.906;2023-07-29T12:53:51;100827.59;;;21.71;100.00
70370;BME280;57790;51.356;-2.906;2023-07-29T12:56:52;100843.78;;;21.71;100.00
70370;BME280;57790;51.356;-2.906;2023-07-29T12:59:52;100845.06;;;21.68;100.00
70370;BME280;57790;51.356;-2.906;2023-07-29T13:02:53;100859.59;;;21.67;100.00
70370;BME280;57790;51.356;-2.906;2023-07-29T13:05:53;100862.69;;;21.71;100.00
70370;BME280;57790;51.356;-2.906;2023-07-29T13:08:53;100863.13;;;21.67;100.00
70370;BME280;57790;51.356;-2.906;2023-07-29T13:11:54;100860.91;;;21.64;100.00
70370;BME280;57790;51.356;-2.906;2023-07-29T13:14:54;100862.53;;;21.65;100.00
70370;BME280;57790;51.356;-2.906;2023-07-29T13:17:54;100859.84;;;21.65;100.00
70370;BME280;57790;51.356;-2.906;2023-07-29T13:20:55;100861.94;;;21.63;100.00
70370;BME280;57790;51.356;-2.906;2023-07-29T13:23:55;100870.41;;;21.67;100.00
70370;BME280;57790;51.356;-2.906;2023-07-29T13:26:56;100862.31;;;21.67;100.00
70370;BME280;57790;51.356;-2.906;2023-07-29T13:29:57;100859.16;;;21.70;100.00
70370;BME280;57790;51.356;-2.906;2023-07-29T13:32:57;100860.34;;;21.74;100.00
70370;BME280;57790;51.356;-2.906;2023-07-29T13:35:57;100853.06;;;21.75;100.00
70370;BME280;57790;51.356;-2.906;2023-07-29T13:38:58;100857.75;;;21.79;100.00
70370;BME280;57790;51.356;-2.906;2023-07-29T13:41:58;100859.63;;;21.79;100.00
70370;BME280;57790;51.356;-2.906;2023-07-29T13:44:58;100865.59;;;21.81;100.00
70370;BME280;57790;51.356;-2.906;2023-07-29T13:47:59;100864.31;;;21.83;100.00
70370;BME280;57790;51.356;-2.906;2023-07-29T13:50:59;100861.41;;;21.85;100.00
70370;BME280;57790;51.356;-2.906;2023-07-29T13:53:59;100866.56;;;21.86;100.00
70370;BME280;57790;51.356;-2.906;2023-07-29T13:57:00;100858.22;;;21.88;100.00
70370;BME280;57790;51.356;-2.906;2023-07-29T14:00:00;100864.22;;;21.90;100.00
70370;BME280;57790;51.356;-2.906;2023-07-29T14:03:01;100864.09;;;21.96;100.00
70370;BME280;57790;51.356;-2.906;2023-07-29T14:06:01;100867.97;;;22.01;100.00
70370;BME280;57790;51.356;-2.906;2023-07-29T14:09:02;100869.63;;;22.02;100.00
70370;BME280;57790;51.356;-2.906;2023-07-29T14:12:02;100875.41;;;22.05;100.00
70370;BME280;57790;51.356;-2.906;2023-07-29T14:15:04;100881.16;;;22.09;100.00
70370;BME280;57790;51.356;-2.906;2023-07-29T14:18:05;100887.13;;;22.11;100.00
70370;BME280;57790;51.356;-2.906;2023-07-29T14:21:06;100887.38;;;22.09;100.00
70370;BME280;57790;51.356;-2.906;2023-07-29T14:24:06;100884.00;;;22.14;100.00
70370;BME280;57790;51.356;-2.906;2023-07-29T14:27:07;100884.31;;;22.17;100.00
70370;BME280;57790;51.356;-2.906;2023-07-29T14:30:07;100896.53;;;22.20;100.00
70370;BME280;57790;51.356;-2.906;2023-07-29T14:33:08;100894.41;;;22.22;100.00
70370;BME280;57790;51.356;-2.906;2023-07-29T14:36:09;100892.78;;;22.21;100.00
70370;BME280;57790;51.356;-2.906;2023-07-29T14:39:10;100897.22;;;22.27;100.00
70370;BME280;57790;51.356;-2.906;2023-07-29T14:42:11;100894.31;;;22.29;100.00
70370;BME280;57790;51.356;-2.906;2023-07-29T14:45:12;100903.00;;;22.31;100.00
70370;BME280;57790;51.356;-2.906;2023-07-29T14:48:12;100892.78;;;22.33;100.00
70370;BME280;57790;51.356;-2.906;2023-07-29T14:51:13;100903.09;;;22.36;100.00
70370;BME280;57790;51.356;-2.906;2023-07-29T14:54:13;100891.81;;;22.39;100.00
70370;BME280;57790;51.356;-2.906;2023-07-29T14:57:13;100890.53;;;22.41;100.00
70370;BME280;57790;51.356;-2.906;2023-07-29T15:00:14;100896.28;;;22.45;100.00
70370;BME280;57790;51.356;-2.906;2023-07-29T15:03:14;100900.63;;;22.46;100.00
70370;BME280;57790;51.356;-2.906;2023-07-29T15:06:15;100902.28;;;22.47;100.00
70370;BME280;57790;51.356;-2.906;2023-07-29T15:09:16;100899.91;;;22.50;100.00
70370;BME280;57790;51.356;-2.906;2023-07-29T15:12:16;100888.63;;;22.53;100.00
70370;BME280;57790;51.356;-2.906;2023-07-29T15:15:17;100890.84;;;22.56;100.00
70370;BME280;57790;51.356;-2.906;2023-07-29T15:18:17;100906.84;;;22.58;100.00
70370;BME280;57790;51.356;-2.906;2023-07-29T15:21:18;100894.25;;;22.64;100.00
70370;BME280;57790;51.356;-2.906;2023-07-29T15:24:18;100897.88;;;22.69;100.00
70370;BME280;57790;51.356;-2.906;2023-07-29T15:27:18;100904.72;;;22.72;100.00
70370;BME280;57790;51.356;-2.906;2023-07-29T15:30:19;100894.94;;;22.71;100.00
70370;BME280;57790;51.356;-2.906;2023-07-29T15:33:19;100899.63;;;22.75;100.00